Time;durP1;ratioP1;P1;durP2;ratioP2;P2;SDS_P1;SDS_P2;PMS_P1;PMS_P2;Temp;Humidity;BMP_temperature;BMP_pressure;BME280_temperature;BME280_humidity;BME280_pressure;Samples;Min_cycle;Max_cycle;Signal;HPM_P1;HPM_P2
2021/08/19 00:00:06;;;;;;;0.85;0.60;;;;;;;29.39;23.37;98020.16;5061529;28;20047;-81
2021/08/19 00:02:32;;;;;;;0.93;0.60;;;;;;;29.46;23.89;98021.06;5067504;28;20112;-81
2021/08/19 00:04:58;;;;;;;0.90;0.70;;;;;;;29.42;23.96;98026.91;5067417;28;20021;-81
2021/08/19 00:07:24;;;;;;;0.63;0.52;;;;;;;29.58;23.67;98020.91;5066266;28;20455;-81
2021/08/19 00:09:51;;;;;;;2.50;0.45;;;;;;;29.60;23.40;98020.44;5066541;28;20082;-81
2021/08/19 00:12:17;;;;;;;0.68;0.52;;;;;;;29.76;23.43;98020.13;5061975;28;20435;-81
2021/08/19 00:14:43;;;;;;;0.50;0.50;;;;;;;29.89;23.30;98013.06;5059277;28;20381;-81
2021/08/19 00:17:10;;;;;;;1.13;0.70;;;;;;;29.90;23.38;98022.31;5065678;28;20508;-81
2021/08/19 00:19:36;;;;;;;0.70;0.50;;;;;;;29.81;23.55;98014.63;5065399;28;20024;-81
2021/08/19 00:22:03;;;;;;;2.55;0.50;;;;;;;29.93;23.03;98012.88;5064801;28;20029;-81
2021/08/19 00:24:30;;;;;;;2.70;0.50;;;;;;;30.03;23.36;98006.72;5061386;28;20085;-81
2021/08/19 00:26:56;;;;;;;1.63;0.68;;;;;;;29.90;23.52;98010.97;5070365;28;20032;-80
2021/08/19 00:29:22;;;;;;;0.63;0.60;;;;;;;29.70;23.69;98013.50;5069566;28;20037;-80
2021/08/19 00:31:49;;;;;;;0.70;0.40;;;;;;;29.66;23.55;98007.25;5066131;28;20033;-80
2021/08/19 00:34:16;;;;;;;0.40;0.40;;;;;;;29.54;23.79;98011.03;5065720;28;20020;-80
2021/08/19 00:36:42;;;;;;;1.17;0.50;;;;;;;29.58;23.80;98003.94;5068681;28;20032;-80
2021/08/19 00:39:08;;;;;;;0.68;0.55;;;;;;;29.71;23.56;98009.44;5069238;28;20099;-80
2021/08/19 00:41:37;;;;;;;0.63;0.40;;;;;;;29.80;23.45;98015.13;5066244;28;20112;-80
2021/08/19 00:44:05;;;;;;;0.85;0.60;;;;;;;29.82;23.74;98009.75;5068473;28;20094;-81
2021/08/19 00:46:35;;;;;;;0.60;0.50;;;;;;;29.74;23.50;98011.31;5062164;28;20067;-80
2021/08/19 00:49:05;;;;;;;0.55;0.47;;;;;;;29.57;23.91;98010.84;5060250;28;20036;-80
2021/08/19 00:51:35;;;;;;;0.43;0.40;;;;;;;29.69;23.70;98015.56;5064636;28;20040;-80
2021/08/19 00:54:05;;;;;;;0.75;0.40;;;;;;;29.85;23.40;98011.66;5070176;28;20032;-80
2021/08/19 00:56:32;;;;;;;0.57;0.57;;;;;;;29.82;23.60;98016.22;5069477;28;20138;-80
2021/08/19 00:58:58;;;;;;;0.88;0.40;;;;;;;29.96;23.26;98015.53;5064407;28;20091;-80
2021/08/19 01:01:24;;;;;;;0.60;0.50;;;;;;;29.87;23.48;98017.63;5059309;28;20070;-80
2021/08/19 01:03:55;;;;;;;0.60;0.50;;;;;;;29.71;23.98;98018.69;5068749;28;20036;-80
2021/08/19 01:06:21;;;;;;;0.55;0.40;;;;;;;29.62;24.14;98020.75;5063203;28;20445;-80
2021/08/19 01:08:47;;;;;;;1.67;0.95;;;;;;;29.77;23.94;98013.22;5063184;28;20055;-80
2021/08/19 01:11:15;;;;;;;0.57;0.43;;;;;;;29.82;23.86;98015.41;5069660;28;20029;-80
2021/08/19 01:13:41;;;;;;;0.98;0.50;;;;;;;29.76;23.84;98015.25;5065148;28;20131;-80
2021/08/19 01:16:07;;;;;;;0.50;0.40;;;;;;;29.86;23.74;98013.19;5060287;28;20044;-80
2021/08/19 01:18:42;;;;;;;0.60;0.40;;;;;;;30.00;23.49;98019.00;5065902;28;20040;-80
2021/08/19 01:21:13;;;;;;;0.45;0.40;;;;;;;30.01;23.57;98016.94;5069544;28;20021;-79
2021/08/19 01:23:40;;;;;;;0.50;0.30;;;;;;;29.90;23.67;98017.44;5065446;28;20033;-80
2021/08/19 01:26:09;;;;;;;0.77;0.40;;;;;;;29.79;23.73;98016.34;5070784;28;20095;-80
2021/08/19 01:28:37;;;;;;;3.20;0.40;;;;;;;29.83;24.24;98008.47;5064108;28;20131;-80
2021/08/19 01:31:04;;;;;;;0.57;0.30;;;;;;;29.92;23.90;98017.75;5065618;28;20036;-80
2021/08/19 01:33:31;;;;;;;0.50;0.50;;;;;;;29.98;23.34;98021.50;5060391;28;20029;-79
2021/08/19 01:35:58;;;;;;;0.60;0.40;;;;;;;29.95;23.80;98013.97;5063158;28;20032;-80
2021/08/19 01:38:32;;;;;;;0.60;0.50;;;;;;;29.86;23.51;98010.38;5065510;28;20049;-80
2021/08/19 01:40:58;;;;;;;0.80;0.40;;;;;;;29.92;23.39;98009.25;5061731;28;20116;-80
2021/08/19 01:43:27;;;;;;;1.58;0.50;;;;;;;29.87;23.67;98007.06;5068132;28;20052;-80
2021/08/19 01:45:55;;;;;;;0.75;0.40;;;;;;;29.87;23.95;98015.53;5067367;28;20020;-80
2021/08/19 01:48:22;;;;;;;0.95;0.52;;;;;;;29.91;23.56;98010.53;5073369;28;20044;-80
2021/08/19 01:50:48;;;;;;;0.60;0.30;;;;;;;30.03;23.71;98011.59;5067370;28;20516;-80
2021/08/19 01:53:14;;;;;;;0.60;0.40;;;;;;;30.09;22.98;98007.63;5063927;28;20539;-80
2021/08/19 01:55:40;;;;;;;1.00;0.32;;;;;;;30.19;22.71;98004.75;5061442;28;20040;-80
2021/08/19 01:58:07;;;;;;;0.63;0.35;;;;;;;30.27;22.71;98003.19;5063113;28;20017;-80
2021/08/19 02:00:33;;;;;;;2.28;0.30;;;;;;;30.09;22.89;98006.84;5059448;28;20393;-80
2021/08/19 02:03:03;;;;;;;0.95;0.40;;;;;;;30.06;23.26;98002.91;5055959;28;20037;-80
2021/08/19 02:05:30;;;;;;;0.63;0.43;;;;;;;29.99;23.21;98011.75;5064853;28;20055;-80
2021/08/19 02:07:56;;;;;;;0.43;0.32;;;;;;;29.96;23.22;98015.53;5055370;28;20107;-80
2021/08/19 02:10:22;;;;;;;0.45;0.30;;;;;;;29.97;23.51;98013.47;5063960;28;20071;-80
2021/08/19 02:12:48;;;;;;;0.43;0.43;;;;;;;29.93;23.07;98010.03;5069220;28;20029;-80
2021/08/19 02:15:15;;;;;;;0.80;0.35;;;;;;;30.03;22.99;98005.94;5067635;28;20025;-80
2021/08/19 02:17:41;;;;;;;0.70;0.57;;;;;;;30.08;23.11;98002.47;5062258;28;20424;-79
2021/08/19 02:20:08;;;;;;;0.65;0.43;;;;;;;30.02;23.27;98004.34;5066533;28;20048;-80
2021/08/19 02:22:34;;;;;;;0.60;0.50;;;;;;;29.97;23.74;98007.81;5067707;28;20036;-80
2021/08/19 02:25:00;;;;;;;0.40;0.38;;;;;;;30.05;23.40;98006.22;5065181;28;22006;-79
2021/08/19 02:27:26;;;;;;;0.55;0.47;;;;;;;30.04;23.46;98018.81;5065176;28;20488;-80
2021/08/19 02:29:52;;;;;;;0.55;0.40;;;;;;;30.03;23.53;98011.59;5064625;28;20056;-80
2021/08/19 02:32:19;;;;;;;0.30;0.30;;;;;;;30.19;23.52;98005.56;5063931;28;20036;-80
2021/08/19 02:34:45;;;;;;;0.30;0.30;;;;;;;30.16;23.76;98006.50;5062658;28;20036;-80
2021/08/19 02:37:11;;;;;;;1.00;0.40;;;;;;;30.35;23.42;98007.25;5064286;28;20029;-80
2021/08/19 02:39:37;;;;;;;1.20;0.50;;;;;;;30.34;23.66;98002.84;5062360;28;20047;-80
2021/08/19 02:42:04;;;;;;;0.32;0.32;;;;;;;30.17;23.72;98013.75;5061252;28;20024;-80
2021/08/19 02:44:30;;;;;;;0.43;0.40;;;;;;;30.18;23.95;98012.47;5068159;28;20488;-80
2021/08/19 02:46:56;;;;;;;0.60;0.40;;;;;;;30.07;24.15;98006.53;5062452;28;20052;-81
2021/08/19 02:49:22;;;;;;;0.40;0.40;;;;;;;30.07;24.16;98003.72;5063178;28;20044;-80
2021/08/19 02:51:48;;;;;;;0.28;0.28;;;;;;;30.21;24.08;98005.06;5070677;28;20033;-80
2021/08/19 02:54:14;;;;;;;0.57;0.50;;;;;;;30.31;23.73;98000.94;5067433;28;20021;-80
2021/08/19 02:56:40;;;;;;;0.43;0.30;;;;;;;30.35;23.68;98008.03;5062157;28;20033;-80
2021/08/19 02:59:06;;;;;;;0.40;0.40;;;;;;;30.28;23.82;97999.06;5063602;28;20036;-80
2021/08/19 03:01:33;;;;;;;0.75;0.30;;;;;;;30.36;23.74;97998.28;5058485;28;20029;-80
2021/08/19 03:03:59;;;;;;;0.90;0.40;;;;;;;30.18;24.12;98001.16;5066793;28;20040;-80
2021/08/19 03:06:25;;;;;;;0.30;0.30;;;;;;;30.24;23.95;97998.47;5067293;28;20089;-80
2021/08/19 03:08:51;;;;;;;1.00;0.40;;;;;;;30.26;24.03;97999.56;5063532;28;20040;-80
2021/08/19 03:11:17;;;;;;;0.22;0.20;;;;;;;30.40;23.70;98001.72;5072302;28;20040;-80
2021/08/19 03:13:43;;;;;;;0.52;0.32;;;;;;;30.11;23.58;98006.38;5066875;28;20067;-80
2021/08/19 03:16:09;;;;;;;0.50;0.30;;;;;;;29.86;24.20;98008.31;5064040;28;20044;-80
2021/08/19 03:18:35;;;;;;;1.05;0.40;;;;;;;29.88;24.84;98005.81;5064144;28;20040;-80
2021/08/19 03:21:03;;;;;;;0.45;0.40;;;;;;;29.69;24.97;98011.94;5068561;28;20039;-80
2021/08/19 03:23:30;;;;;;;0.43;0.32;;;;;;;29.80;24.45;98001.72;5062782;28;20056;-80
2021/08/19 03:25:56;;;;;;;0.30;0.30;;;;;;;29.96;24.21;98003.44;5068093;28;20076;-81
2021/08/19 03:28:23;;;;;;;1.58;0.40;;;;;;;30.01;24.49;98006.38;5065526;28;20112;-80
2021/08/19 03:30:50;;;;;;;0.50;0.32;;;;;;;29.91;24.71;98012.56;5062953;28;20044;-80
2021/08/19 03:33:17;;;;;;;0.40;0.28;;;;;;;29.75;25.09;98005.19;5066216;28;20035;-80
2021/08/19 03:35:45;;;;;;;1.65;0.30;;;;;;;29.91;24.84;98001.25;5056554;28;20093;-80
2021/08/19 03:38:11;;;;;;;0.20;0.20;;;;;;;29.80;24.91;98003.78;5067095;28;20078;-79
2021/08/19 03:40:37;;;;;;;1.45;0.40;;;;;;;30.04;24.52;98004.66;5057311;28;20373;-80
2021/08/19 03:43:04;;;;;;;0.40;0.30;;;;;;;30.35;23.94;98002.38;5067651;28;20145;-80
2021/08/19 03:45:30;;;;;;;1.70;0.40;;;;;;;30.46;24.40;98001.84;5064163;28;20049;-80
2021/08/19 03:47:56;;;;;;;0.50;0.50;;;;;;;30.44;24.45;98002.31;5060203;28;20447;-80
2021/08/19 03:50:23;;;;;;;0.32;0.30;;;;;;;30.48;24.15;98002.94;5061361;28;20116;-80
2021/08/19 03:52:50;;;;;;;0.73;0.30;;;;;;;30.49;24.01;98006.56;5069130;28;20366;-80
2021/08/19 03:55:16;;;;;;;0.60;0.40;;;;;;;30.63;24.19;98012.31;5065622;28;20029;-80
2021/08/19 03:57:42;;;;;;;0.77;0.40;;;;;;;30.84;23.54;97999.13;5060263;28;20033;-80
2021/08/19 04:00:09;;;;;;;0.80;0.30;;;;;;;30.94;23.46;98008.38;5064126;28;20029;-79
2021/08/19 04:02:35;;;;;;;0.20;0.20;;;;;;;31.12;23.12;98011.06;5059344;28;20105;-80
2021/08/19 04:05:01;;;;;;;0.30;0.30;;;;;;;31.14;22.78;98005.69;5064531;28;20041;-80
2021/08/19 04:07:27;;;;;;;0.30;0.30;;;;;;;30.94;23.06;98008.38;5062794;28;20037;-80
2021/08/19 04:09:53;;;;;;;0.38;0.30;;;;;;;30.80;23.52;98006.22;5064371;28;20520;-80
2021/08/19 04:12:19;;;;;;;0.45;0.30;;;;;;;30.80;23.53;97994.88;5068388;28;20033;-80
2021/08/19 04:14:45;;;;;;;0.50;0.43;;;;;;;30.86;23.48;98002.25;5065002;28;20040;-80
2021/08/19 04:17:11;;;;;;;0.20;0.20;;;;;;;31.14;23.51;98008.53;5064242;28;20021;-80
2021/08/19 04:19:37;;;;;;;0.40;0.30;;;;;;;31.45;23.82;98008.94;5063970;28;20036;-80
2021/08/19 04:22:04;;;;;;;0.43;0.40;;;;;;;31.81;23.37;98002.91;5064960;28;20067;-80
2021/08/19 04:24:30;;;;;;;0.30;0.30;;;;;;;32.07;23.85;98006.78;5063693;28;20035;-80
2021/08/19 04:26:56;;;;;;;0.30;0.20;;;;;;;32.25;23.16;97999.31;5060894;28;20090;-80
2021/08/19 04:29:22;;;;;;;0.30;0.20;;;;;;;32.10;23.46;98007.84;5065168;28;20036;-80
2021/08/19 04:31:48;;;;;;;0.40;0.40;;;;;;;32.12;23.24;98015.88;5071071;28;20060;-80
2021/08/19 04:34:14;;;;;;;0.30;0.30;;;;;;;32.40;23.16;98014.25;5071838;28;20024;-80
2021/08/19 04:36:40;;;;;;;0.30;0.28;;;;;;;32.78;23.58;98014.13;5070929;28;20040;-80
2021/08/19 04:39:06;;;;;;;0.85;0.85;;;;;;;33.07;23.12;98011.16;5070131;28;20028;-80
2021/08/19 04:41:32;;;;;;;0.50;0.30;;;;;;;32.95;23.68;98017.97;5066502;28;20033;-80
2021/08/19 04:43:58;;;;;;;0.20;0.20;;;;;;;32.62;23.79;98011.81;5068142;28;20040;-83
2021/08/19 04:46:24;;;;;;;2.47;0.32;;;;;;;32.52;24.49;98010.34;5062447;28;20091;-79
2021/08/19 04:48:50;;;;;;;0.38;0.20;;;;;;;32.46;24.45;98012.31;5066330;28;20393;-80
2021/08/19 04:51:18;;;;;;;0.88;0.30;;;;;;;32.18;24.86;98019.59;5067131;28;20090;-79
2021/08/19 04:53:44;;;;;;;0.20;0.20;;;;;;;32.45;25.50;98010.72;5061864;28;20033;-80
2021/08/19 04:56:10;;;;;;;0.52;0.30;;;;;;;33.11;24.75;98013.81;5052875;28;20366;-79
2021/08/19 04:58:37;;;;;;;0.20;0.20;;;;;;;33.61;24.14;98018.06;5061448;28;20488;-80
2021/08/19 05:01:03;;;;;;;0.30;0.30;;;;;;;33.91;24.54;98018.66;5066513;28;20028;-79
2021/08/19 05:03:29;;;;;;;0.15;0.15;;;;;;;33.85;24.43;98017.78;5067201;28;20169;-80
2021/08/19 05:05:55;;;;;;;0.90;0.38;;;;;;;33.71;24.64;98018.69;5064422;28;20071;-79
2021/08/19 05:08:21;;;;;;;1.30;0.35;;;;;;;33.80;25.02;98012.81;5061482;28;20144;-79
2021/08/19 05:10:47;;;;;;;0.30;0.30;;;;;;;33.62;25.38;98016.78;5063304;28;20040;-79
2021/08/19 05:13:13;;;;;;;0.90;0.35;;;;;;;33.47;25.31;98018.91;5064135;28;20059;-80
2021/08/19 05:15:39;;;;;;;0.38;0.38;;;;;;;33.53;24.80;98013.31;5072688;28;20037;-79
2021/08/19 05:18:05;;;;;;;0.30;0.30;;;;;;;33.71;25.60;98016.63;5068499;28;20127;-81
2021/08/19 05:20:31;;;;;;;0.55;0.55;;;;;;;33.78;24.56;98006.84;5060452;28;20384;-81
2021/08/19 05:22:57;;;;;;;2.92;0.60;;;;;;;33.97;24.22;98014.56;5063664;28;20016;-80
2021/08/19 05:25:23;;;;;;;0.30;0.30;;;;;;;34.21;24.68;98010.66;5075580;28;20043;-80
2021/08/19 05:27:49;;;;;;;0.73;0.30;;;;;;;34.44;23.51;98007.47;5062825;28;20484;-80
2021/08/19 05:30:15;;;;;;;0.45;0.30;;;;;;;34.52;23.99;98017.16;5054574;28;20067;-81
2021/08/19 05:32:42;;;;;;;0.50;0.38;;;;;;;34.71;24.17;98006.13;5055894;28;20025;-80
2021/08/19 05:35:08;;;;;;;0.70;0.32;;;;;;;34.56;23.90;98011.22;5055679;28;20033;-80
2021/08/19 05:37:35;;;;;;;0.30;0.30;;;;;;;34.61;23.84;98019.78;5073012;28;20075;-80
2021/08/19 05:40:01;;;;;;;0.43;0.40;;;;;;;34.45;23.77;98011.13;5075444;28;20042;-81
2021/08/19 05:42:27;;;;;;;0.38;0.28;;;;;;;34.56;23.55;98016.91;5075502;28;20430;-80
2021/08/19 05:44:53;;;;;;;0.22;0.20;;;;;;;34.61;23.46;98013.34;5072839;28;20112;-81
2021/08/19 05:47:19;;;;;;;0.80;0.30;;;;;;;34.67;23.57;98014.94;5075421;28;20052;-80
2021/08/19 05:49:46;;;;;;;0.28;0.28;;;;;;;34.99;23.19;98006.28;5075547;28;20044;-80
2021/08/19 05:52:12;;;;;;;0.65;0.30;;;;;;;35.29;22.93;98011.13;5075619;28;20024;-80
2021/08/19 05:54:39;;;;;;;1.65;0.30;;;;;;;35.53;23.40;98013.56;5075525;28;20033;-80
2021/08/19 05:57:05;;;;;;;0.32;0.20;;;;;;;35.38;22.17;98010.91;5075366;28;20032;-80
2021/08/19 05:59:31;;;;;;;0.20;0.20;;;;;;;35.27;23.47;98012.94;5075406;28;20024;-81
2021/08/19 06:01:58;;;;;;;0.32;0.30;;;;;;;35.29;22.45;98011.13;5075332;28;20083;-81
2021/08/19 06:04:24;;;;;;;0.20;0.20;;;;;;;35.33;23.10;98016.59;5075278;28;20077;-81
2021/08/19 06:06:50;;;;;;;0.90;0.40;;;;;;;35.31;22.46;97999.97;5075228;28;20036;-81
2021/08/19 06:09:16;;;;;;;0.25;0.25;;;;;;;34.80;23.13;98008.75;5074743;28;20039;-80
2021/08/19 06:11:42;;;;;;;0.30;0.22;;;;;;;34.66;23.06;98009.72;5058005;28;20392;-80
2021/08/19 06:14:09;;;;;;;0.32;0.32;;;;;;;34.54;23.83;98016.66;5054815;28;20036;-81
2021/08/19 06:16:35;;;;;;;0.30;0.30;;;;;;;34.62;23.00;98012.81;5073646;28;20053;-81
2021/08/19 06:19:02;;;;;;;0.30;0.30;;;;;;;35.18;23.54;98008.22;5069116;28;20484;-80
2021/08/19 06:21:29;;;;;;;0.47;0.22;;;;;;;35.33;23.58;98002.31;5054946;28;20025;-81
2021/08/19 06:23:55;;;;;;;0.30;0.20;;;;;;;34.94;23.43;98004.19;5054725;28;20044;-81
2021/08/19 06:26:21;;;;;;;0.35;0.20;;;;;;;34.72;22.91;98010.56;5054871;28;20025;-81
2021/08/19 06:28:47;;;;;;;0.50;0.40;;;;;;;34.44;23.95;98007.47;5073719;28;20047;-81
2021/08/19 06:31:13;;;;;;;0.68;0.30;;;;;;;34.68;24.04;98005.06;5074931;28;20033;-81
2021/08/19 06:33:39;;;;;;;0.35;0.30;;;;;;;34.66;23.22;97999.09;5074404;28;20028;-81
2021/08/19 06:36:07;;;;;;;0.13;0.13;;;;;;;34.78;23.21;98002.78;5074644;28;20044;-81
2021/08/19 06:38:33;;;;;;;0.40;0.30;;;;;;;35.50;23.38;98005.25;5074364;28;20032;-80
2021/08/19 06:40:59;;;;;;;0.28;0.28;;;;;;;35.43;23.26;98000.78;5074548;28;20078;-81
2021/08/19 06:43:25;;;;;;;0.40;0.40;;;;;;;35.91;23.38;98003.53;5074398;28;20037;-81
2021/08/19 06:45:51;;;;;;;0.47;0.22;;;;;;;35.91;21.83;98009.25;5074171;28;20098;-81
2021/08/19 06:48:17;;;;;;;0.30;0.22;;;;;;;35.68;22.20;98005.59;5074192;28;20088;-80
2021/08/19 06:50:43;;;;;;;0.45;0.30;;;;;;;35.66;22.43;98008.16;5074053;28;20024;-81
2021/08/19 06:53:09;;;;;;;0.25;0.25;;;;;;;35.71;21.96;98004.53;5073887;28;20056;-81
2021/08/19 06:55:35;;;;;;;0.30;0.30;;;;;;;35.59;22.29;97999.31;5074376;28;20017;-81
2021/08/19 06:58:02;;;;;;;0.30;0.20;;;;;;;35.48;21.89;98007.81;5074271;28;20067;-81
2021/08/19 07:00:28;;;;;;;0.57;0.28;;;;;;;34.89;23.05;98008.59;5074580;28;20102;-81
2021/08/19 07:02:54;;;;;;;4.13;0.38;;;;;;;35.14;23.04;98006.91;5074118;28;20025;-80
2021/08/19 07:05:20;;;;;;;0.30;0.30;;;;;;;35.60;23.27;98007.38;5068195;28;20093;-81
2021/08/19 07:07:46;;;;;;;0.30;0.20;;;;;;;35.82;22.52;98009.50;5067577;28;20055;-81
2021/08/19 07:10:13;;;;;;;0.35;0.30;;;;;;;36.32;22.49;98003.84;5068913;28;20195;-81
2021/08/19 07:12:39;;;;;;;0.20;0.20;;;;;;;36.57;21.43;98006.44;5055265;28;20066;-81
2021/08/19 07:15:07;;;;;;;0.57;0.30;;;;;;;36.26;21.79;98003.06;5073731;28;20509;-81
2021/08/19 07:17:33;;;;;;;0.35;0.30;;;;;;;36.00;22.19;98006.19;5073342;28;20043;-81
2021/08/19 07:20:00;;;;;;;2.42;0.20;;;;;;;36.12;22.17;98004.88;5056701;28;20104;-81
2021/08/19 07:22:29;;;;;;;0.10;0.10;;;;;;;36.44;22.37;98002.53;5058746;28;20033;-81
2021/08/19 07:24:55;;;;;;;0.47;0.22;;;;;;;36.35;22.72;97997.88;5055897;28;20017;-81
2021/08/19 07:27:21;;;;;;;1.20;0.30;;;;;;;36.20;22.58;97994.47;5053045;28;20036;-81
2021/08/19 07:29:47;;;;;;;0.20;0.20;;;;;;;35.92;23.04;97985.88;5052238;28;20047;-81
2021/08/19 07:32:18;;;;;;;0.70;0.30;;;;;;;36.29;23.15;97997.09;5052907;28;20389;-81
2021/08/19 07:34:45;;;;;;;0.20;0.20;;;;;;;36.52;22.16;97992.97;5065871;28;20486;-81
2021/08/19 07:37:11;;;;;;;0.32;0.30;;;;;;;36.24;21.51;97989.31;5071364;28;20366;-81
2021/08/19 07:39:37;;;;;;;0.35;0.20;;;;;;;36.54;22.52;97995.28;5070172;28;20480;-81
2021/08/19 07:42:03;;;;;;;0.30;0.30;;;;;;;36.45;22.31;98001.28;5071832;28;20472;-81
2021/08/19 07:44:29;;;;;;;0.13;0.13;;;;;;;36.80;21.74;97990.03;5072644;28;20389;-81
2021/08/19 07:46:55;;;;;;;0.40;0.20;;;;;;;37.17;21.47;97984.75;5072743;28;20488;-82
2021/08/19 07:49:22;;;;;;;0.20;0.20;;;;;;;37.10;21.47;97991.00;5073330;28;20124;-81
2021/08/19 07:51:48;;;;;;;0.20;0.15;;;;;;;37.19;21.52;97984.97;5072697;28;20040;-81
2021/08/19 07:54:16;;;;;;;0.20;0.20;;;;;;;37.02;21.57;97986.34;5073440;28;20082;-81
2021/08/19 07:56:42;;;;;;;0.40;0.30;;;;;;;36.28;22.24;97986.94;5073192;28;20119;-81
2021/08/19 07:59:09;;;;;;;0.30;0.30;;;;;;;36.29;21.23;97996.31;5067000;28;20067;-81
2021/08/19 08:01:35;;;;;;;0.45;0.38;;;;;;;36.87;21.84;97994.44;5069511;28;20036;-81
2021/08/19 08:04:01;;;;;;;0.30;0.20;;;;;;;36.33;21.44;97985.38;5060371;28;20029;-81
2021/08/19 08:06:27;;;;;;;0.20;0.20;;;;;;;36.67;21.26;97993.44;5069337;28;20036;-81
2021/08/19 08:08:53;;;;;;;0.80;0.20;;;;;;;37.08;20.63;97998.56;5069014;28;20029;-81
2021/08/19 08:11:19;;;;;;;0.20;0.20;;;;;;;37.21;20.00;97993.81;5072626;28;20032;-81
2021/08/19 08:13:45;;;;;;;0.40;0.40;;;;;;;36.96;20.78;97999.91;5071595;28;20488;-81
2021/08/19 08:16:11;;;;;;;0.80;0.32;;;;;;;36.49;21.56;97996.06;5071807;28;20033;-81
2021/08/19 08:18:37;;;;;;;0.57;0.30;;;;;;;35.79;22.14;97993.38;5073333;28;20017;-81
2021/08/19 08:21:04;;;;;;;0.20;0.20;;;;;;;35.94;21.58;97983.25;5070528;28;20025;-81
2021/08/19 08:23:36;;;;;;;0.20;0.20;;;;;;;36.22;21.32;97991.13;5072600;28;20029;-81
2021/08/19 08:26:05;;;;;;;0.75;0.30;;;;;;;36.30;21.50;98000.72;5072980;28;20430;-81
2021/08/19 08:28:31;;;;;;;1.10;0.35;;;;;;;36.15;21.87;98000.22;5053010;28;20551;-81
2021/08/19 08:30:59;;;;;;;0.40;0.30;;;;;;;36.14;22.14;97998.66;5059700;28;20029;-81
2021/08/19 08:33:25;;;;;;;0.50;0.50;;;;;;;36.20;21.06;98002.31;5070888;28;20043;-81
2021/08/19 08:35:52;;;;;;;0.30;0.30;;;;;;;36.50;21.22;98003.34;5070422;28;20029;-81
2021/08/19 08:38:22;;;;;;;0.45;0.30;;;;;;;37.08;21.43;98007.94;5072696;28;20033;-82
2021/08/19 08:40:51;;;;;;;0.32;0.20;;;;;;;37.01;21.32;98014.22;5069396;28;20029;-82
2021/08/19 08:43:20;;;;;;;0.22;0.22;;;;;;;36.56;22.13;98013.50;5072746;28;20097;-81
2021/08/19 08:45:50;;;;;;;0.20;0.20;;;;;;;36.19;21.35;98012.94;5066727;28;20071;-81
2021/08/19 08:48:22;;;;;;;0.30;0.30;;;;;;;35.65;22.05;98012.31;5071944;28;20033;-81
2021/08/19 08:50:51;;;;;;;0.30;0.30;;;;;;;35.76;21.21;98009.47;5076593;28;20024;-81
2021/08/19 08:53:18;;;;;;;0.30;0.30;;;;;;;36.39;21.43;98006.97;5076401;28;20388;-81
2021/08/19 08:55:46;;;;;;;0.30;0.30;;;;;;;35.73;22.24;98024.78;5076488;28;20466;-82
2021/08/19 08:58:13;;;;;;;0.40;0.40;;;;;;;36.31;21.83;98005.94;5076186;28;20469;-81
2021/08/19 09:01:00;;;;;;;0.20;0.20;;;;;;;37.30;22.43;98012.78;5070705;28;20079;-81
2021/08/19 09:03:26;;;;;;;0.20;0.20;;;;;;;37.81;21.10;98014.88;5071198;28;20068;-81
2021/08/19 09:05:53;;;;;;;0.45;0.45;;;;;;;37.86;19.95;98010.47;5067967;28;20021;-81
2021/08/19 09:08:24;;;;;;;0.43;0.38;;;;;;;38.02;20.74;98009.56;5067041;28;20052;-81
2021/08/19 09:10:53;;;;;;;0.10;0.10;;;;;;;38.06;20.22;98007.22;5074215;28;20029;-82
2021/08/19 09:13:25;;;;;;;0.20;0.20;;;;;;;38.10;20.87;98001.16;5076338;28;20059;-81
2021/08/19 09:15:53;;;;;;;0.30;0.30;;;;;;;37.95;20.18;98002.31;5071603;28;20032;-82
2021/08/19 09:18:36;;;;;;;0.20;0.20;;;;;;;37.55;19.69;97993.69;5072259;28;20100;-82
2021/08/19 09:21:17;;;;;;;0.47;0.20;;;;;;;37.41;20.13;98003.41;5074112;28;20370;-81
2021/08/19 09:23:46;;;;;;;;;;;;;;;37.14;21.22;98000.09;5073621;28;20029;-81
2021/08/19 09:26:25;;;;;;;0.13;0.13;;;;;;;36.93;21.30;98004.59;5062931;28;19920;-81
2021/08/19 09:29:10;;;;;;;0.55;0.40;;;;;;;37.19;20.94;98005.03;5071864;28;20028;-82
2021/08/19 09:31:37;;;;;;;0.40;0.30;;;;;;;37.40;20.85;98005.50;5067561;28;20085;-82
2021/08/19 09:34:03;;;;;;;0.20;0.20;;;;;;;36.91;20.23;98007.19;5051109;28;20101;-81
2021/08/19 09:36:34;;;;;;;0.50;0.28;;;;;;;37.69;20.87;98001.97;5069916;28;20044;-82
2021/08/19 09:39:05;;;;;;;0.28;0.28;;;;;;;38.10;19.87;98004.81;5063795;28;20047;-82
2021/08/19 09:41:31;;;;;;;0.43;0.20;;;;;;;38.29;19.95;98007.84;5067691;28;20028;-82
2021/08/19 09:43:59;;;;;;;0.20;0.20;;;;;;;38.40;20.20;98002.78;5063079;28;20032;-82
2021/08/19 09:46:31;;;;;;;0.20;0.13;;;;;;;38.26;20.21;97998.19;5063200;28;20439;-82
2021/08/19 09:49:00;;;;;;;0.20;0.20;;;;;;;37.28;20.47;98003.94;5063213;28;20102;-81
2021/08/19 09:51:28;;;;;;;0.10;0.10;;;;;;;37.17;20.55;97998.28;5064405;28;20492;-82
2021/08/19 09:53:58;;;;;;;0.25;0.22;;;;;;;37.15;20.77;98000.88;5061939;28;20389;-82
2021/08/19 09:56:27;;;;;;;0.20;0.20;;;;;;;37.62;20.32;97993.94;5067137;28;20056;-81
2021/08/19 09:58:55;;;;;;;0.10;0.10;;;;;;;37.23;20.47;97996.16;5075426;28;20025;-81
2021/08/19 10:01:21;;;;;;;1.65;0.30;;;;;;;36.55;21.03;98000.47;5063240;28;20029;-81
2021/08/19 10:03:47;;;;;;;0.20;0.20;;;;;;;36.99;20.80;97996.00;5055386;28;20103;-82
2021/08/19 10:06:14;;;;;;;0.40;0.30;;;;;;;37.65;20.53;98000.66;5056932;28;20036;-82
2021/08/19 10:08:40;;;;;;;0.20;0.20;;;;;;;38.17;20.42;97994.88;5069411;28;20066;-81
2021/08/19 10:11:08;;;;;;;0.30;0.30;;;;;;;37.90;19.36;97996.63;5070854;28;20036;-83
2021/08/19 10:13:35;;;;;;;0.32;0.20;;;;;;;38.40;19.17;97996.25;5066207;28;20095;-82
2021/08/19 10:16:01;;;;;;;0.30;0.30;;;;;;;37.54;19.88;97992.91;5074068;28;20028;-82
2021/08/19 10:18:33;;;;;;;0.50;0.30;;;;;;;37.05;19.97;97994.66;5068585;28;20036;-82
2021/08/19 10:21:11;;;;;;;0.25;0.25;;;;;;;36.93;20.56;98001.72;5055991;28;20045;-81
2021/08/19 10:23:42;;;;;;;0.20;0.20;;;;;;;37.24;21.51;97994.84;5065508;28;20020;-81
2021/08/19 10:26:18;;;;;;;0.30;0.30;;;;;;;37.33;20.07;97998.19;5074622;28;20017;-81
2021/08/19 10:28:53;;;;;;;0.32;0.25;;;;;;;37.82;20.31;97989.88;5061384;28;20107;-81
2021/08/19 10:31:40;;;;;;;0.30;0.20;;;;;;;37.95;19.29;97996.59;5071487;28;20028;-81
2021/08/19 10:34:07;;;;;;;0.55;0.25;;;;;;;37.71;19.14;97998.56;5063559;28;20036;-82
2021/08/19 10:36:41;;;;;;;0.15;0.15;;;;;;;37.34;19.77;97994.00;5062993;28;20025;-82
2021/08/19 10:39:20;;;;;;;0.65;0.20;;;;;;;37.59;19.41;97992.09;5058762;28;20518;-82
2021/08/19 10:41:48;;;;;;;0.32;0.20;;;;;;;38.09;19.50;97996.75;5060115;28;20116;-85
2021/08/19 10:44:15;;;;;;;0.15;0.15;;;;;;;38.27;19.55;97996.09;5056672;28;20048;-82
2021/08/19 10:46:52;;;;;;;0.20;0.20;;;;;;;38.45;18.62;97995.44;5067790;28;20043;-82
2021/08/19 10:49:30;;;;;;;0.35;0.30;;;;;;;37.51;18.55;97987.47;5063086;28;20081;-82
2021/08/19 10:52:27;;;;;;;0.10;0.10;;;;;;;37.43;18.63;97983.59;5058962;28;20033;-84
2021/08/19 10:55:10;;;;;;;0.20;0.20;;;;;;;37.43;18.89;97990.13;5049691;28;20378;-82
2021/08/19 10:57:57;;;;;;;0.20;0.20;;;;;;;36.95;19.42;97978.28;5056904;28;20029;-83
2021/08/19 11:00:38;;;;;;;0.20;0.20;;;;;;;37.48;20.69;97982.81;5059834;28;20056;-83
2021/08/19 11:03:04;;;;;;;0.15;0.15;;;;;;;37.44;19.31;97982.31;5057819;28;20032;-82
2021/08/19 11:05:31;;;;;;;0.10;0.10;;;;;;;37.60;19.28;97975.69;5061456;28;20099;-83
2021/08/19 11:07:59;;;;;;;0.57;0.30;;;;;;;37.40;18.53;97973.97;5055049;28;20515;-83
2021/08/19 11:10:35;;;;;;;0.20;0.20;;;;;;;37.27;19.15;97970.91;5061927;28;20045;-83
2021/08/19 11:13:01;;;;;;;0.20;0.20;;;;;;;37.50;18.82;97975.22;5061947;28;20033;-83
2021/08/19 11:15:28;;;;;;;0.32;0.32;;;;;;;37.70;18.62;97982.66;5061002;28;20515;-83
2021/08/19 11:17:57;;;;;;;0.10;0.10;;;;;;;37.56;18.61;97981.69;5058443;28;20087;-85
2021/08/19 11:20:29;;;;;;;0.20;0.20;;;;;;;37.25;19.63;97979.25;5055301;28;20021;-83
2021/08/19 11:23:14;;;;;;;0.20;0.20;;;;;;;37.64;18.87;97979.06;5060213;28;20063;-84
2021/08/19 11:25:42;;;;;;;0.10;0.10;;;;;;;38.18;19.15;97979.22;5054499;28;20029;-83
2021/08/19 11:28:14;;;;;;;0.28;0.20;;;;;;;38.35;18.93;97986.38;5061084;28;20480;-84
2021/08/19 11:30:48;;;;;;;0.20;0.10;;;;;;;38.60;19.05;97976.50;5062198;28;20044;-84
2021/08/19 11:33:22;;;;;;;0.15;0.10;;;;;;;39.02;18.23;97980.78;5061755;28;20029;-84
2021/08/19 11:35:54;;;;;;;0.10;0.10;;;;;;;39.13;17.92;97983.50;5054307;28;20536;-83